Ambato, Ecuador

5:47 PM ECT on October 20, 2014 (GMT -0500)
Cotopaxi International | Change Station
CLOSE
Current Station
Airport
Location: Latacunga,
Elevation: 9137 ft
Nearby Weather Stations

Elev 9137 ft 0.91 °S, 78.62 °W | Updated 47 minutes ago

Mostly Cloudy
Mostly Cloudy
57 °F
Feels Like 57 °F
N
8
Wind Variable Wind from North

Today
High -- | Low -- °F
--% Chance of Precip.
Yesterday
High -- | Low -- °F
Precip. -- in
5:54 AM 6:03 PM
Waning Crescent, 9% visible
Pressure 30.30 in
Visibility 6.2 miles
Clouds Mostly Cloudy 2600 ft
Dew Point 54 °F
Humidity 88%
Rainfall 0.00 in
Snow Depth Not available.
UV 1 out of 12
Pollen Not available.
Air Quality Not available.
Flu Activity Not available.
METAR SELT 202200Z 36007KT 9999 BKN026 14/12 Q1026 RERA

More Conditions Fewer Conditions

Pressure 30.30 in
Visibility 6.2 miles
Clouds Mostly Cloudy 2600 ft
Dew Point 54 °F
Humidity 88%
Rainfall 0.00 in
Snow Depth Not available.
UV 1 out of 12
Pollen Not available.
Air Quality Not available.
Flu Activity Not available.
METAR SELT 202200Z 36007KT 9999 BKN026 14/12 Q1026 RERA

More Conditions Fewer Conditions

10-Day Weather Forecast

Almanac

Astronomy

Oct. 20, 2014 Rise Set
Actual Time 5:54 AM ECT 6:03 PM ECT
Civil Twilight 5:33 AM ECT 6:24 PM ECT
Nautical Twilight 5:09 AM ECT 6:48 PM ECT
Astronomical Twilight 4:44 AM ECT 7:13 PM ECT
Moon 3:26 AM ECT 3:46 PM ECT
Length of Visible Light 12h 50m
Length of Day
12h 08m
Tomorrow will be 0m 4s longer.
Waning Crescent, 9% of the Moon is Illuminated
Today
Waning Crescent
Oct 23
New
Oct 30
First Quarter
Nov 6
Full
Nov 14
Last Quarter

Today's Extremes

Country Highs Country Lows

Community

WunderPhotos

Upload Photos

1,763,541 photos uploaded!

WunderBlogs® & News

By Dr. Jeff Masters
Director of Meteorology, Weather Underground
By Kari Strenfel
Meteorologist, Weather Underground
By Christopher C. Burt
Weather Historian, Weather Underground
October 20, 2014
October 20, 2014
October 20, 2014

Nearby

Snow Depth

Not available.

Earthquake Activity

City Distance Mag. Time & Date
No recent earthquake activity has been reported nearby.
Minimum magnitude displayed is 2.5.

Coastal Water Temperatures

Place Temperature
No Stations Reporting

Nearby Weather Stations